Time,TemperatureF,DewpointF,PressureIn,WindDirection,WindDirectionDegrees,WindSpeedMPH,WindSpeedGustMPH,Humidity,HourlyPrecipIn,Conditions,Clouds,dailyrainin,SoftwareType,DateUTC
2013-01-01 00:02:00,9.2,0.8,30.40,NE,55,0.0,0.0,68,0.00,,,0.00,Wunderground v.1.15,2013-01-01 07:02:00,
2013-01-01 00:32:00,4.8,-4.4,30.43,NE,55,1.0,1.0,65,0.00,,,0.00,Wunderground v.1.15,2013-01-01 07:32:00,
2013-01-01 01:02:00,6.1,-1.6,30.43,NE,49,1.0,1.0,70,0.00,,,0.00,Wunderground v.1.15,2013-01-01 08:02:00,
2013-01-01 01:32:00,4.7,-2.6,30.43,NE,35,2.0,2.0,71,0.00,,,0.00,Wunderground v.1.15,2013-01-01 08:32:00,
2013-01-01 02:02:00,4.5,-4.1,30.43,NE,35,0.0,0.0,67,0.00,,,0.00,Wunderground v.1.15,2013-01-01 09:02:00,
2013-01-01 02:32:00,3.9,-4.9,30.47,NE,35,1.0,1.0,66,0.00,,,0.00,Wunderground v.1.15,2013-01-01 09:32:00,
2013-01-01 03:02:00,2.4,-8.3,30.50,NE,35,1.0,2.0,60,0.00,,,0.00,Wunderground v.1.15,2013-01-01 10:02:00,
2013-01-01 03:32:00,0.9,-9.1,30.52,NE,35,1.0,1.0,62,0.00,,,0.00,Wunderground v.1.15,2013-01-01 10:32:00,
2013-01-01 04:02:00,1.3,-6.2,30.51,NE,35,2.0,2.0,70,0.00,,,0.00,Wunderground v.1.15,2013-01-01 11:02:00,
2013-01-01 04:32:00,1.1,-6.7,30.52,NE,35,2.0,2.0,69,0.00,,,0.00,Wunderground v.1.15,2013-01-01 11:32:00,
2013-01-01 05:02:00,3.0,-4.6,30.51,NE,35,1.0,1.0,70,0.00,,,0.00,Wunderground v.1.15,2013-01-01 12:02:00,
2013-01-01 05:32:00,4.3,-3.0,30.52,NE,35,0.0,0.0,71,0.00,,,0.00,Wunderground v.1.15,2013-01-01 12:32:00,
2013-01-01 06:02:00,3.4,-5.4,30.53,NE,37,1.0,2.0,66,0.00,,,0.00,Wunderground v.1.15,2013-01-01 13:02:00,
2013-01-01 06:32:00,2.4,-5.5,30.58,NE,37,1.0,1.0,69,0.00,,,0.00,Wunderground v.1.15,2013-01-01 13:32:00,
2013-01-01 07:02:00,1.8,-6.0,30.59,NE,37,1.0,1.0,69,0.00,,,0.00,Wunderground v.1.15,2013-01-01 14:02:00,
2013-01-01 07:32:00,1.8,-6.6,30.58,NE,37,1.0,1.0,67,0.00,,,0.00,Wunderground v.1.15,2013-01-01 14:32:00,
2013-01-01 08:02:00,1.7,-6.4,30.60,NE,37,1.0,1.0,68,0.00,,,0.00,Wunderground v.1.15,2013-01-01 15:02:00,
2013-01-01 08:32:00,3.9,-4.0,30.63,NE,37,0.0,2.0,69,0.00,,,0.00,Wunderground v.1.15,2013-01-01 15:32:00,
2013-01-01 09:02:00,6.3,-0.8,30.63,NE,37,2.0,2.0,72,0.00,,,0.00,Wunderground v.1.15,2013-01-01 16:02:00,
2013-01-01 09:32:00,12.3,4.7,30.59,NE,37,0.0,0.0,71,0.00,,,0.00,Wunderground v.1.15,2013-01-01 16:32:00,
2013-01-01 10:02:00,16.5,3.9,30.57,SSE,162,2.0,2.0,57,0.00,,,0.00,Wunderground v.1.15,2013-01-01 17:02:00,
2013-01-01 10:32:00,16.1,2.7,30.57,SSE,158,5.0,5.0,55,0.00,,,0.00,Wunderground v.1.15,2013-01-01 17:32:00,
2013-01-01 11:02:00,18.1,4.2,30.55,SSE,158,4.0,4.0,54,0.00,,,0.00,Wunderground v.1.15,2013-01-01 18:02:00,
2013-01-01 11:32:00,19.2,3.1,30.51,SSE,161,4.0,5.0,49,0.00,,,0.00,Wunderground v.1.15,2013-01-01 18:32:00,
2013-01-01 12:02:00,19.2,-99.9,30.44,West,280,6.0,6.0,255,0.00,,,0.00,Wunderground v.1.15,2013-01-01 19:02:00,
2013-01-01 12:32:00,24.2,6.4,30.47,SSE,165,1.0,1.0,46,0.00,,,0.00,Wunderground v.1.15,2013-01-01 19:32:00,
2013-01-01 13:02:00,22.4,4.7,30.49,NE,55,2.0,2.0,46,0.00,,,0.00,Wunderground v.1.15,2013-01-01 20:02:00,
2013-01-01 13:32:00,19.9,4.7,30.51,WSW,241,5.0,5.0,51,0.00,,,0.00,Wunderground v.1.15,2013-01-01 20:32:00,
2013-01-01 14:02:00,21.4,5.2,30.51,South,179,5.0,5.0,49,0.00,,,0.00,Wunderground v.1.15,2013-01-01 21:02:00,
2013-01-01 14:32:00,21.8,5.1,30.52,SW,236,5.0,5.0,48,0.00,,,0.00,Wunderground v.1.15,2013-01-01 21:32:00,
2013-01-01 15:02:00,23.2,5.0,30.53,South,171,3.0,3.0,45,0.00,,,0.00,Wunderground v.1.15,2013-01-01 22:02:00,
2013-01-01 15:32:00,21.0,4.8,30.55,WSW,244,6.0,6.0,49,0.00,,,0.00,Wunderground v.1.15,2013-01-01 22:32:00,
2013-01-01 16:02:00,19.1,5.2,30.58,SSE,158,3.0,3.0,54,0.00,,,0.00,Wunderground v.1.15,2013-01-01 23:02:00,
2013-01-01 16:32:00,18.6,5.1,30.57,SSE,161,6.0,6.0,55,0.00,,,0.00,Wunderground v.1.15,2013-01-01 23:32:00,
2013-01-01 17:02:00,17.5,4.8,30.60,SSE,154,2.0,2.0,57,0.00,,,0.00,Wunderground v.1.15,2013-01-02 00:02:00,
2013-01-01 17:32:00,16.7,3.3,30.60,ENE,78,1.0,1.0,55,0.00,,,0.00,Wunderground v.1.15,2013-01-02 00:32:00,
2013-01-01 18:02:00,15.2,1.5,30.62,WSW,256,1.0,2.0,54,0.00,,,0.00,Wunderground v.1.15,2013-01-02 01:02:00,
2013-01-01 18:32:00,11.7,-0.6,30.67,WSW,256,0.0,0.0,57,0.00,,,0.00,Wunderground v.1.15,2013-01-02 01:32:00,
2013-01-01 19:02:00,8.8,-1.6,30.69,North,8,1.0,1.0,62,0.00,,,0.00,Wunderground v.1.15,2013-01-02 02:02:00,
2013-01-01 19:32:00,8.8,-0.3,30.70,NNE,25,3.0,3.0,66,0.00,,,0.00,Wunderground v.1.15,2013-01-02 02:32:00,
2013-01-01 20:02:00,8.6,-0.1,30.70,NNE,23,3.0,5.0,67,0.00,,,0.00,Wunderground v.1.15,2013-01-02 03:02:00,
2013-01-01 20:32:00,5.2,-5.7,30.67,NNE,23,1.0,1.0,60,0.00,,,0.00,Wunderground v.1.15,2013-01-02 03:32:00,
2013-01-01 21:02:00,2.8,-8.0,30.72,NNE,23,2.0,2.0,60,0.00,,,0.00,Wunderground v.1.15,2013-01-02 04:02:00,
2013-01-01 21:32:00,3.4,-6.1,30.64,NNE,23,1.0,1.0,64,0.00,,,0.00,Wunderground v.1.15,2013-01-02 04:32:00,
2013-01-01 22:02:00,3.9,-5.3,30.63,NNE,23,1.0,1.0,65,0.00,,,0.00,Wunderground v.1.15,2013-01-02 05:02:00,
2013-01-01 22:32:00,5.2,-4.3,30.63,NNE,23,0.0,0.0,64,0.00,,,0.00,Wunderground v.1.15,2013-01-02 05:32:00,
2013-01-01 23:02:00,5.8,-3.4,30.61,NNE,23,0.0,0.0,65,0.00,,,0.00,Wunderground v.1.15,2013-01-02 06:02:00,
2013-01-01 23:32:00,4.1,-5.1,30.64,NNE,23,1.0,2.0,65,0.00,,,0.00,Wunderground v.1.15,2013-01-02 06:32:00,